createdAt,value
2023-01-03T00:01:22.178Z,96734.59
2023-01-03T00:04:08.446Z,96722.41
2023-01-03T00:06:54.999Z,96738.09
2023-01-03T00:09:40.702Z,96709.19
2023-01-03T00:12:31.064Z,96728.69
2023-01-03T00:15:17.133Z,96733.03
2023-01-03T00:18:03.361Z,96713.38
2023-01-03T00:20:49.620Z,96721.25
2023-01-03T00:23:35.626Z,96729.91
2023-01-03T00:26:21.355Z,96732.31
2023-01-03T00:29:08.195Z,96730.88
2023-01-03T00:31:54.350Z,96734.38
2023-01-03T00:34:43.588Z,96728.94
2023-01-03T00:37:29.824Z,96723.28
2023-01-03T00:40:15.831Z,96740.75
2023-01-03T00:43:20.177Z,96730.41
2023-01-03T00:46:07.280Z,96729.56
2023-01-03T00:48:53.198Z,96723.06
2023-01-03T00:51:40.690Z,96729.47
2023-01-03T00:54:26.453Z,96721.75
2023-01-03T00:57:12.327Z,96734.63
2023-01-03T00:59:58.073Z,96707.41
2023-01-03T01:02:44.309Z,96738.13
2023-01-03T01:05:31.018Z,96715.38
2023-01-03T01:08:16.782Z,96719.78
2023-01-03T01:11:03.857Z,96720.66
2023-01-03T01:13:50.374Z,96716.31
2023-01-03T01:16:36.102Z,96711.63
2023-01-03T01:19:28.320Z,96716.66
2023-01-03T01:22:14.357Z,96700.28
2023-01-03T01:25:01.131Z,96695.13
2023-01-03T01:27:47.184Z,96703.91
2023-01-03T01:30:33.237Z,96709.94
2023-01-03T01:33:18.867Z,96697.91
2023-01-03T01:36:16.795Z,96699.94
2023-01-03T01:39:06.878Z,96703.44
2023-01-03T01:42:33.372Z,96694.78
2023-01-03T01:45:19.310Z,96687.78
2023-01-03T01:48:12.532Z,96706.81
2023-01-03T01:50:58.633Z,96695.25
2023-01-03T01:53:44.948Z,96698.84
2023-01-03T01:56:46.406Z,96682.25
2023-01-03T01:59:32.495Z,96694.78
2023-01-03T02:02:21.298Z,96693.44
2023-01-03T02:05:09.807Z,96695.63
2023-01-03T02:07:55.969Z,96700.94
2023-01-03T02:11:29.850Z,96702.00
2023-01-03T02:14:32.387Z,96673.09
2023-01-03T02:17:27.181Z,96693.06
2023-01-03T02:20:22.028Z,96695.84
2023-01-03T02:23:13.880Z,96698.38
2023-01-03T02:26:16.133Z,96688.13
2023-01-03T02:29:40.385Z,96688.41
2023-01-03T02:32:35.263Z,96685.38
2023-01-03T02:35:55.880Z,96688.50
2023-01-03T02:38:57.949Z,96689.59
2023-01-03T02:42:14.819Z,96691.41
2023-01-03T02:45:20.220Z,96675.03
2023-01-03T02:48:13.462Z,96681.78
2023-01-03T02:51:01.892Z,96680.09
2023-01-03T02:53:49.492Z,96678.63
2023-01-03T02:56:43.283Z,96676.13
2023-01-03T02:59:44.169Z,96674.66
2023-01-03T03:02:35.310Z,96680.56
2023-01-03T03:05:42.902Z,96682.50
2023-01-03T03:08:29.155Z,96683.94
2023-01-03T03:11:33.868Z,96683.44
2023-01-03T03:14:35.439Z,96687.19
2023-01-03T03:17:25.008Z,96684.19
2023-01-03T03:20:35.196Z,96681.78
2023-01-03T03:23:43.441Z,96669.72
2023-01-03T03:26:38.002Z,96669.03
2023-01-03T03:29:24.492Z,96669.38
2023-01-03T03:32:10.520Z,96669.72
2023-01-03T03:34:57.776Z,96675.75
2023-01-03T03:37:45.514Z,96665.63
2023-01-03T03:40:51.457Z,96683.59
2023-01-03T03:44:08.215Z,96675.16
2023-01-03T03:47:04.203Z,96683.94
2023-01-03T03:49:52.152Z,96682.03
2023-01-03T03:52:39.133Z,96672.03
2023-01-03T03:55:34.944Z,96682.41
2023-01-03T03:58:23.861Z,96673.22
2023-01-03T04:01:13.945Z,96680.47
2023-01-03T04:04:04.274Z,96683.81
2023-01-03T04:06:51.588Z,96670.69
2023-01-03T04:09:37.602Z,96678.78
2023-01-03T04:12:23.411Z,96678.03
2023-01-03T04:15:10.033Z,96662.03
2023-01-03T04:17:56.134Z,96684.44
2023-01-03T04:20:41.977Z,96686.72
2023-01-03T04:23:27.801Z,96685.28
2023-01-03T04:26:13.626Z,96691.66
2023-01-03T04:28:59.689Z,96665.41
2023-01-03T04:31:46.012Z,96686.22
2023-01-03T04:34:31.844Z,96687.19
2023-01-03T04:37:17.723Z,96689.00
2023-01-03T04:40:03.855Z,96680.22
2023-01-03T04:43:08.550Z,96686.84
2023-01-03T04:45:54.453Z,96691.41
2023-01-03T04:48:40.416Z,96690.31
2023-01-03T04:51:26.813Z,96699.59
2023-01-03T04:54:12.734Z,96691.88
2023-01-03T04:56:58.639Z,96691.66
2023-01-03T04:59:44.417Z,96689.59
2023-01-03T05:02:30.445Z,96697.19
2023-01-03T05:05:16.262Z,96710.31
2023-01-03T05:08:05.251Z,96695.28
2023-01-03T05:10:52.921Z,96706.22
2023-01-03T05:13:39.157Z,96720.53
2023-01-03T05:16:25.131Z,96711.75
2023-01-03T05:19:10.979Z,96720.31
2023-01-03T05:22:15.262Z,96685.16
2023-01-03T05:25:19.982Z,96714.78
2023-01-03T05:28:07.906Z,96709.84
2023-01-03T05:30:58.890Z,96693.69
2023-01-03T05:33:45.197Z,96717.66
2023-01-03T05:36:30.961Z,96729.47
2023-01-03T05:39:17.005Z,96722.59
2023-01-03T05:42:03.014Z,96720.06
2023-01-03T05:44:49.017Z,96726.69
2023-01-03T05:47:35.012Z,96718.13
2023-01-03T05:50:20.788Z,96725.25
2023-01-03T05:53:06.532Z,96725.97
2023-01-03T05:55:52.626Z,96720.53
2023-01-03T05:58:38.662Z,96728.38
2023-01-03T06:01:28.588Z,96730.06
2023-01-03T06:04:14.754Z,96737.91
2023-01-03T06:07:00.503Z,96729.09
2023-01-03T06:09:46.755Z,96735.72
2023-01-03T06:12:32.740Z,96735.72
2023-01-03T06:15:20.333Z,96740.66
2023-01-03T06:18:06.253Z,96737.03
2023-01-03T06:20:52.033Z,96748.25
2023-01-03T06:23:37.991Z,96752.47
2023-01-03T06:26:25.208Z,96754.72
2023-01-03T06:29:11.476Z,96746.06
2023-01-03T06:31:57.617Z,96751.38
2023-01-03T06:34:43.483Z,96754.38
2023-01-03T06:37:29.201Z,96763.66
2023-01-03T06:40:15.060Z,96760.28
2023-01-03T06:43:02.176Z,96746.91
2023-01-03T06:46:06.865Z,96764.88
2023-01-03T06:49:11.500Z,96766.22
2023-01-03T06:52:16.178Z,96775.72
2023-01-03T06:55:02.504Z,96771.25
2023-01-03T06:57:48.328Z,96746.31
2023-01-03T07:00:35.923Z,96769.06
2023-01-03T07:03:22.788Z,96767.25
2023-01-03T07:06:08.880Z,96777.16
2023-01-03T07:08:55.506Z,96786.19
2023-01-03T07:11:41.947Z,96783.66
2023-01-03T07:14:28.043Z,96778.25
2023-01-03T07:17:16.445Z,96783.19
2023-01-03T07:20:03.844Z,96787.50
2023-01-03T07:22:49.999Z,96797.75
2023-01-03T07:25:35.958Z,96801.09
2023-01-03T07:28:21.692Z,96807.03
2023-01-03T07:31:07.815Z,96802.31
2023-01-03T07:33:54.927Z,96808.47
2023-01-03T07:36:40.725Z,96803.41
2023-01-03T07:39:26.585Z,96803.28
2023-01-03T07:42:30.985Z,96807.03
2023-01-03T07:45:17.165Z,96814.47
2023-01-03T07:48:03.071Z,96811.59
2023-01-03T07:50:49.007Z,96805.31
2023-01-03T07:53:35.992Z,96801.44
2023-01-03T07:56:25.139Z,96809.78
2023-01-03T07:59:10.823Z,96814.97
2023-01-03T08:01:56.829Z,96798.44
2023-01-03T08:04:42.718Z,96815.78
2023-01-03T08:07:28.855Z,96815.66
2023-01-03T08:10:37.988Z,96825.91
2023-01-03T08:13:25.216Z,96820.50
2023-01-03T08:16:13.686Z,96821.34
2023-01-03T08:19:01.686Z,96808.31
2023-01-03T08:21:47.738Z,96817.09
2023-01-03T08:24:33.677Z,96809.38
2023-01-03T08:27:19.435Z,96814.69
2023-01-03T08:30:05.825Z,96801.41
2023-01-03T08:32:53.311Z,96807.19
2023-01-03T08:35:42.004Z,96802.13
2023-01-03T08:38:32.443Z,96808.63
2023-01-03T08:41:20.843Z,96806.31
2023-01-03T08:44:07.435Z,96808.56
2023-01-03T08:46:55.104Z,96796.88
2023-01-03T08:49:41.577Z,96797.44
2023-01-03T08:52:34.636Z,96793.59
2023-01-03T08:55:21.246Z,96790.19
2023-01-03T08:58:09.641Z,96793.19
2023-01-03T09:00:55.632Z,96772.44
2023-01-03T09:03:41.817Z,96761.03
2023-01-03T09:06:28.290Z,96778.63
2023-01-03T09:09:14.030Z,96777.56
2023-01-03T09:11:59.988Z,96775.09
2023-01-03T09:14:45.901Z,96761.66
2023-01-03T09:17:31.739Z,96762.25
2023-01-03T09:20:18.857Z,96759.78
2023-01-03T09:23:04.588Z,96760.38
2023-01-03T09:25:51.038Z,96761.41
2023-01-03T09:28:37.009Z,96737.16
2023-01-03T09:31:22.773Z,96757.09
2023-01-03T09:34:08.601Z,96752.94
2023-01-03T09:36:54.597Z,96743.72
2023-01-03T09:39:40.709Z,96728.84
2023-01-03T09:42:46.418Z,96735.06
2023-01-03T09:45:34.556Z,96740.13
2023-01-03T09:48:33.405Z,96685.72
2023-01-03T09:51:44.025Z,96704.16
2023-01-03T09:54:51.491Z,96718.50
2023-01-03T09:57:56.068Z,96706.44
2023-01-03T10:01:05.237Z,96708.28
2023-01-03T10:04:00.087Z,96705.19
2023-01-03T10:07:27.294Z,96701.44
2023-01-03T10:10:22.149Z,96709.69
2023-01-03T10:13:20.048Z,96686.00
2023-01-03T10:16:24.817Z,96682.47
2023-01-03T10:19:24.815Z,96680.78
2023-01-03T10:22:15.022Z,96686.91
2023-01-03T10:25:07.505Z,96671.91
2023-01-03T10:28:02.219Z,96672.72
2023-01-03T10:30:58.517Z,96647.03
2023-01-03T10:33:49.136Z,96664.72
2023-01-03T10:36:34.884Z,96634.94
2023-01-03T10:39:31.203Z,96649.91
2023-01-03T10:42:19.620Z,96654.41
2023-01-03T10:45:15.467Z,96656.34
2023-01-03T10:48:02.181Z,96641.13
2023-01-03T10:50:48.554Z,96647.09
2023-01-03T10:53:39.414Z,96638.31
2023-01-03T10:56:27.239Z,96640.47
2023-01-03T10:59:33.529Z,96628.78
2023-01-03T11:02:20.079Z,96604.00
2023-01-03T11:05:15.452Z,96623.84
2023-01-03T11:08:11.556Z,96619.63
2023-01-03T11:10:59.477Z,96616.72
2023-01-03T11:13:45.306Z,96600.66
2023-01-03T11:16:32.482Z,96597.97
2023-01-03T11:19:19.057Z,96586.94
2023-01-03T11:22:09.778Z,96588.34
2023-01-03T11:25:31.435Z,96593.78
2023-01-03T11:28:51.979Z,96582.22
2023-01-03T11:31:56.850Z,96572.59
2023-01-03T11:35:26.443Z,96575.81
2023-01-03T11:38:27.748Z,96569.53
2023-01-03T11:41:41.991Z,96560.84
2023-01-03T11:44:46.743Z,96566.44
2023-01-03T11:47:41.227Z,96552.88
2023-01-03T11:50:45.538Z,96548.22
2023-01-03T11:53:36.102Z,96555.09
2023-01-03T11:56:29.895Z,96532.00
2023-01-03T11:59:50.306Z,96528.31
2023-01-03T12:02:48.484Z,96545.06
2023-01-03T12:05:47.864Z,96526.50
2023-01-03T12:08:54.831Z,96517.94
2023-01-03T12:11:48.451Z,96524.84
2023-01-03T12:15:02.185Z,96518.31
2023-01-03T12:18:09.974Z,96519.94
2023-01-03T12:21:03.457Z,96511.09
2023-01-03T12:23:59.282Z,96511.91
2023-01-03T12:26:52.032Z,96501.19
2023-01-03T12:29:54.645Z,96511.41
2023-01-03T12:32:47.704Z,96499.13
2023-01-03T12:35:41.336Z,96503.13
2023-01-03T12:38:33.218Z,96493.22
2023-01-03T12:41:24.264Z,96494.66
2023-01-03T12:44:16.094Z,96498.81
2023-01-03T12:47:02.696Z,96479.69
2023-01-03T12:50:15.413Z,96494.38
2023-01-03T12:53:23.474Z,96493.00
2023-01-03T12:56:33.052Z,96489.41
2023-01-03T12:59:36.830Z,96483.38
2023-01-03T13:02:52.202Z,96475.84
2023-01-03T13:05:40.611Z,96484.22
2023-01-03T13:08:31.339Z,96464.28
2023-01-03T13:11:25.966Z,96454.13
2023-01-03T13:14:23.825Z,96458.59
2023-01-03T13:17:18.979Z,96452.84
2023-01-03T13:20:29.550Z,96452.41
2023-01-03T13:23:21.859Z,96453.34
2023-01-03T13:26:19.901Z,96435.91
2023-01-03T13:29:45.506Z,96441.44
2023-01-03T13:32:38.057Z,96446.47
